EWG4LP EDDH-EGSS
Flight info
| Callsign | EWG4LP |
|---|---|
| Flight time | N/A |
| Altitude | 38000 |
| Route | WSN5C WSN N125 EKNON DCT NOGRO M40 RINIS |
| Aircraft | A320/M-SDE3FGHIRWY/LB1 |
Departure
| Time | 2026-05-05 10:49 |
|---|---|
| Airport | Hamburg Helmut Schmidt Airport (EDDH) |
Arrival
| Time | N/A |
|---|---|
| Airport | London Stansted Airport (EGSS) |
| Time | Latitude | Longitude | Altitude | Speed | Heading |
|---|---|---|---|---|---|
| 2026-05-05 10:20 | 53.63107 | 10.00400 | 46 ft | 0 kts | 85° |
| 2026-05-05 10:35 | 53.63107 | 10.00398 | 46 ft | 0 kts | 85° |
| 2026-05-05 10:36 | 53.63106 | 10.00392 | 47 ft | 0 kts | 85° |
| 2026-05-05 10:36 | 53.63106 | 10.00387 | 48 ft | 0 kts | 85° |
| 2026-05-05 10:36 | 53.63106 | 10.00382 | 45 ft | 0 kts | 85° |
| 2026-05-05 10:36 | 53.63106 | 10.00377 | 46 ft | 0 kts | 85° |
| 2026-05-05 10:37 | 53.63105 | 10.00372 | 46 ft | 0 kts | 85° |
| 2026-05-05 10:37 | 53.63105 | 10.00369 | 46 ft | 0 kts | 85° |
| 2026-05-05 10:38 | 53.63105 | 10.00368 | 45 ft | 2 kts | 85° |
| 2026-05-05 10:38 | 53.63104 | 10.00345 | 47 ft | 2 kts | 87° |
| 2026-05-05 10:38 | 53.63103 | 10.00316 | 47 ft | 3 kts | 87° |
| 2026-05-05 10:38 | 53.63102 | 10.00287 | 46 ft | 3 kts | 87° |
| 2026-05-05 10:39 | 53.63102 | 10.00257 | 45 ft | 3 kts | 103° |
| 2026-05-05 10:39 | 53.63109 | 10.00230 | 43 ft | 3 kts | 156° |
| 2026-05-05 10:39 | 53.63113 | 10.00226 | 40 ft | 0 kts | 170° |
| 2026-05-05 10:41 | 53.63104 | 10.00227 | 44 ft | 5 kts | 175° |
| 2026-05-05 10:41 | 53.63064 | 10.00214 | 45 ft | 6 kts | 205° |
| 2026-05-05 10:41 | 53.63012 | 10.00161 | 45 ft | 15 kts | 213° |
| 2026-05-05 10:42 | 53.62858 | 10.00017 | 46 ft | 9 kts | 205° |
| 2026-05-05 10:42 | 53.62812 | 9.99969 | 47 ft | 7 kts | 213° |
| 2026-05-05 10:42 | 53.62746 | 9.99908 | 48 ft | 14 kts | 207° |
| 2026-05-05 10:43 | 53.62657 | 9.99809 | 48 ft | 15 kts | 229° |
| 2026-05-05 10:43 | 53.62626 | 9.99643 | 46 ft | 15 kts | 259° |
| 2026-05-05 10:43 | 53.62602 | 9.99438 | 45 ft | 19 kts | 259° |
| 2026-05-05 10:43 | 53.62577 | 9.99213 | 42 ft | 20 kts | 259° |
| 2026-05-05 10:44 | 53.62552 | 9.98990 | 44 ft | 19 kts | 257° |
| 2026-05-05 10:44 | 53.62529 | 9.98785 | 43 ft | 17 kts | 259° |
| 2026-05-05 10:44 | 53.62505 | 9.98596 | 39 ft | 16 kts | 257° |
| 2026-05-05 10:44 | 53.62488 | 9.98423 | 42 ft | 14 kts | 260° |
| 2026-05-05 10:45 | 53.62470 | 9.98263 | 42 ft | 14 kts | 258° |
| 2026-05-05 10:45 | 53.62420 | 9.98070 | 41 ft | 18 kts | 233° |
| 2026-05-05 10:45 | 53.62341 | 9.97911 | 41 ft | 17 kts | 230° |
| 2026-05-05 10:45 | 53.62269 | 9.97766 | 41 ft | 15 kts | 230° |
| 2026-05-05 10:46 | 53.62203 | 9.97634 | 40 ft | 14 kts | 230° |
| 2026-05-05 10:46 | 53.62144 | 9.97515 | 40 ft | 13 kts | 231° |
| 2026-05-05 10:46 | 53.62074 | 9.97369 | 40 ft | 17 kts | 229° |
| 2026-05-05 10:46 | 53.62000 | 9.97225 | 39 ft | 15 kts | 229° |
| 2026-05-05 10:47 | 53.61934 | 9.97092 | 39 ft | 14 kts | 230° |
| 2026-05-05 10:47 | 53.61874 | 9.96971 | 39 ft | 13 kts | 230° |
| 2026-05-05 10:47 | 53.61807 | 9.96836 | 38 ft | 16 kts | 230° |
| 2026-05-05 10:47 | 53.61739 | 9.96700 | 38 ft | 15 kts | 230° |
| 2026-05-05 10:48 | 53.61675 | 9.96557 | 38 ft | 16 kts | 246° |
| 2026-05-05 10:48 | 53.61709 | 9.96420 | 38 ft | 13 kts | 337° |
| 2026-05-05 10:48 | 53.61796 | 9.96421 | 40 ft | 15 kts | 5° |
| 2026-05-05 10:48 | 53.61885 | 9.96493 | 40 ft | 13 kts | 46° |
| 2026-05-05 10:49 | 53.61957 | 9.96636 | 39 ft | 26 kts | 50° |
| 2026-05-05 10:49 | 53.62275 | 9.97282 | 43 ft | 114 kts | 50° |
| 2026-05-05 10:49 | 53.62917 | 9.98589 | 182 ft | 166 kts | 51° |
| 2026-05-05 10:49 | 53.63618 | 10.00052 | 1022 ft | 157 kts | 51° |
| 2026-05-05 10:50 | 53.64326 | 10.01500 | 1635 ft | 168 kts | 50° |
| 2026-05-05 10:50 | 53.65123 | 10.03117 | 2052 ft | 192 kts | 51° |
| 2026-05-05 10:50 | 53.66014 | 10.04922 | 2784 ft | 206 kts | 51° |
| 2026-05-05 10:50 | 53.66951 | 10.06826 | 3546 ft | 216 kts | 50° |
| 2026-05-05 10:51 | 53.67942 | 10.08788 | 4340 ft | 223 kts | 43° |
| 2026-05-05 10:51 | 53.69292 | 10.10071 | 5141 ft | 227 kts | 9° |
| 2026-05-05 10:51 | 53.70849 | 10.09957 | 5869 ft | 230 kts | 339° |
| 2026-05-05 10:51 | 53.72195 | 10.08360 | 6242 ft | 250 kts | 304° |
| 2026-05-05 10:52 | 53.73056 | 10.05703 | 6780 ft | 264 kts | 295° |
| 2026-05-05 10:52 | 53.73882 | 10.02889 | 7556 ft | 270 kts | 294° |
| 2026-05-05 10:52 | 53.74607 | 9.99959 | 8388 ft | 273 kts | 282° |
| 2026-05-05 10:52 | 53.74784 | 9.96759 | 9223 ft | 276 kts | 264° |
| 2026-05-05 10:53 | 53.74337 | 9.93610 | 10055 ft | 278 kts | 246° |
| 2026-05-05 10:53 | 53.73554 | 9.90505 | 10457 ft | 299 kts | 246° |
| 2026-05-05 10:53 | 53.72714 | 9.87191 | 10827 ft | 319 kts | 246° |
| 2026-05-05 10:53 | 53.71828 | 9.83701 | 11510 ft | 327 kts | 246° |
| 2026-05-05 10:54 | 53.70927 | 9.80159 | 12256 ft | 331 kts | 247° |
| 2026-05-05 10:54 | 53.70015 | 9.76566 | 12983 ft | 335 kts | 247° |
| 2026-05-05 10:54 | 53.69090 | 9.72935 | 13728 ft | 338 kts | 247° |
| 2026-05-05 10:54 | 53.68154 | 9.69268 | 14378 ft | 342 kts | 247° |
| 2026-05-05 10:55 | 53.67209 | 9.65573 | 15037 ft | 344 kts | 247° |
| 2026-05-05 10:55 | 53.66257 | 9.61847 | 15718 ft | 347 kts | 247° |
| 2026-05-05 10:55 | 53.65243 | 9.58141 | 16382 ft | 350 kts | 241° |
| 2026-05-05 10:55 | 53.63886 | 9.54718 | 17036 ft | 353 kts | 235° |
| 2026-05-05 10:56 | 53.62442 | 9.51363 | 17713 ft | 355 kts | 235° |
| 2026-05-05 10:56 | 53.60986 | 9.47978 | 18303 ft | 359 kts | 235° |
| 2026-05-05 10:56 | 53.59509 | 9.44540 | 18808 ft | 363 kts | 235° |
| 2026-05-05 10:56 | 53.58022 | 9.41084 | 19375 ft | 366 kts | 235° |
| 2026-05-05 10:57 | 53.56525 | 9.37608 | 19979 ft | 368 kts | 235° |
| 2026-05-05 10:57 | 53.55017 | 9.34107 | 20560 ft | 370 kts | 235° |
| 2026-05-05 10:57 | 53.53529 | 9.30653 | 21151 ft | 370 kts | 236° |
| 2026-05-05 10:57 | 53.52013 | 9.27138 | 21704 ft | 372 kts | 236° |
| 2026-05-05 10:58 | 53.50487 | 9.23607 | 22248 ft | 374 kts | 235° |
| 2026-05-05 10:58 | 53.48951 | 9.20065 | 22768 ft | 376 kts | 235° |
| 2026-05-05 10:58 | 53.47402 | 9.16499 | 23275 ft | 379 kts | 235° |
| 2026-05-05 10:58 | 53.45849 | 9.12921 | 23749 ft | 381 kts | 235° |
| 2026-05-05 10:59 | 53.44284 | 9.09320 | 24177 ft | 383 kts | 235° |
| 2026-05-05 10:59 | 53.42708 | 9.05704 | 24605 ft | 384 kts | 235° |
| 2026-05-05 10:59 | 53.41121 | 9.02077 | 25030 ft | 386 kts | 235° |
| 2026-05-05 10:59 | 53.39548 | 8.98497 | 25415 ft | 387 kts | 235° |
| 2026-05-05 11:00 | 53.37946 | 8.94857 | 25830 ft | 389 kts | 235° |
| 2026-05-05 11:00 | 53.36338 | 8.91198 | 26253 ft | 390 kts | 235° |
| 2026-05-05 11:00 | 53.34857 | 8.87388 | 26665 ft | 390 kts | 243° |
| 2026-05-05 11:00 | 53.33777 | 8.83218 | 27089 ft | 391 kts | 250° |
| 2026-05-05 11:01 | 53.32851 | 8.78920 | 27515 ft | 392 kts | 250° |
| 2026-05-05 11:01 | 53.31908 | 8.74625 | 27932 ft | 394 kts | 250° |
| 2026-05-05 11:01 | 53.30951 | 8.70328 | 28342 ft | 395 kts | 250° |
| 2026-05-05 11:01 | 53.29988 | 8.66021 | 28731 ft | 396 kts | 250° |
| 2026-05-05 11:02 | 53.29025 | 8.61700 | 29112 ft | 397 kts | 250° |
| 2026-05-05 11:02 | 53.28065 | 8.57362 | 29478 ft | 399 kts | 250° |
| 2026-05-05 11:02 | 53.27108 | 8.53004 | 29828 ft | 400 kts | 250° |
| 2026-05-05 11:02 | 53.26162 | 8.48636 | 30139 ft | 401 kts | 251° |
| 2026-05-05 11:03 | 53.25272 | 8.44211 | 30418 ft | 403 kts | 252° |